createdAt,value
2018-06-03T00:02:20.044Z,22.77
2018-06-03T00:07:12.430Z,22.77
2018-06-03T00:12:04.071Z,22.79
2018-06-03T00:16:54.969Z,22.80
2018-06-03T00:21:49.319Z,22.74
2018-06-03T00:26:40.212Z,22.67
2018-06-03T00:31:31.873Z,22.63
2018-06-03T00:36:41.547Z,22.69
2018-06-03T00:41:32.429Z,22.67
2018-06-03T00:46:24.060Z,22.69
2018-06-03T00:51:15.712Z,22.73
2018-06-03T00:56:07.380Z,22.70
2018-06-03T01:00:58.635Z,22.67
2018-06-03T01:05:49.534Z,22.71
2018-06-03T01:10:41.162Z,22.64
2018-06-03T01:15:32.786Z,22.62
2018-06-03T01:20:23.722Z,22.54
2018-06-03T01:25:15.358Z,22.49
2018-06-03T01:30:06.977Z,22.46
2018-06-03T01:34:57.859Z,22.44
2018-06-03T01:39:48.825Z,22.45
2018-06-03T01:44:40.493Z,22.42
2018-06-03T01:49:32.133Z,22.37
2018-06-03T01:54:23.056Z,22.29
2018-06-03T01:59:14.695Z,22.25
2018-06-03T02:04:06.351Z,22.23
2018-06-03T02:08:57.240Z,22.16
2018-06-03T02:13:48.153Z,22.09
2018-06-03T02:18:39.034Z,22.08
2018-06-03T02:23:30.701Z,22.05
2018-06-03T02:28:21.626Z,22.01
2018-06-03T02:33:12.561Z,21.99
2018-06-03T02:38:03.489Z,22.02
2018-06-03T02:42:54.390Z,22.07
2018-06-03T02:47:45.308Z,22.08
2018-06-03T02:52:36.221Z,22.11
2018-06-03T02:57:27.148Z,22.02
2018-06-03T03:02:18.135Z,21.95
2018-06-03T03:07:09.754Z,21.93
2018-06-03T03:12:01.409Z,21.95
2018-06-03T03:16:53.063Z,21.94
2018-06-03T03:21:43.961Z,21.91
2018-06-03T03:26:35.604Z,21.94
2018-06-03T03:31:27.239Z,21.91
2018-06-03T03:36:18.855Z,21.88
2018-06-03T03:41:11.230Z,21.91
2018-06-03T03:46:02.868Z,21.90
2018-06-03T03:50:54.504Z,21.90
2018-06-03T03:55:46.150Z,21.91
2018-06-03T04:00:37.065Z,21.95
2018-06-03T04:05:28.717Z,21.93
2018-06-03T04:10:20.397Z,21.99
2018-06-03T04:15:11.373Z,22.00
2018-06-03T04:20:02.292Z,21.98
2018-06-03T04:24:53.936Z,21.94
2018-06-03T04:29:44.849Z,21.94
2018-06-03T04:34:35.804Z,21.93
2018-06-03T04:39:27.393Z,21.93
2018-06-03T04:44:19.036Z,21.92
2018-06-03T04:49:11.432Z,21.90
2018-06-03T04:54:03.109Z,21.89
2018-06-03T04:58:55.495Z,21.91
2018-06-03T05:03:47.126Z,21.89
2018-06-03T05:08:38.736Z,21.85
2018-06-03T05:13:31.186Z,21.88
2018-06-03T05:18:23.585Z,21.84
2018-06-03T05:23:14.487Z,21.83
2018-06-03T05:28:06.140Z,21.83
2018-06-03T05:32:57.904Z,21.90
2018-06-03T05:37:48.820Z,21.97
2018-06-03T05:42:40.439Z,22.01
2018-06-03T05:47:31.337Z,22.10
2018-06-03T05:52:23.828Z,22.12
2018-06-03T06:02:16.661Z,22.17
2018-06-03T06:07:09.029Z,22.18
2018-06-03T06:12:01.403Z,22.25
2018-06-03T06:16:53.027Z,22.28
2018-06-03T06:21:44.653Z,22.26
2018-06-03T06:26:35.553Z,21.95
2018-06-03T06:31:28.246Z,21.82
2018-06-03T06:36:19.914Z,21.82
2018-06-03T06:41:11.540Z,21.96
2018-06-03T06:46:02.433Z,22.12
2018-06-03T06:50:54.809Z,22.23
2018-06-03T06:55:46.554Z,22.27
2018-06-03T07:00:37.412Z,22.21
2018-06-03T07:05:28.414Z,22.23
2018-06-03T07:10:19.341Z,22.23
2018-06-03T07:15:10.228Z,22.15
2018-06-03T07:20:02.618Z,22.13
2018-06-03T07:24:54.249Z,22.20
2018-06-03T07:29:45.178Z,22.17
2018-06-03T07:34:36.065Z,22.14
2018-06-03T07:39:27.710Z,22.10
2018-06-03T07:44:18.622Z,22.09
2018-06-03T07:49:10.315Z,22.12
2018-06-03T07:54:02.002Z,22.06
2018-06-03T07:58:53.672Z,22.01
2018-06-03T08:03:45.319Z,22.00
2018-06-03T08:08:36.227Z,21.99
2018-06-03T08:13:27.267Z,21.97
2018-06-03T08:23:09.141Z,21.97
2018-06-03T08:28:00.776Z,22.02
2018-06-03T08:32:52.388Z,22.08
2018-06-03T08:37:43.285Z,22.12
2018-06-03T08:42:34.195Z,22.16
2018-06-03T08:47:26.683Z,22.16
2018-06-03T08:52:19.190Z,22.17
2018-06-03T08:57:10.108Z,22.13
2018-06-03T09:02:01.767Z,22.07
2018-06-03T09:06:52.723Z,21.97
2018-06-03T09:11:43.580Z,21.92
2018-06-03T09:16:35.279Z,21.94
2018-06-03T09:21:27.671Z,21.94
2018-06-03T09:26:19.363Z,21.94
2018-06-03T09:31:10.300Z,21.94
2018-06-03T09:36:01.170Z,21.89
2018-06-03T09:40:52.049Z,21.85
2018-06-03T09:45:43.706Z,21.84
2018-06-03T09:50:35.375Z,21.87
2018-06-03T09:55:26.302Z,21.91
2018-06-03T10:00:17.219Z,21.98
2018-06-03T10:05:08.172Z,22.07
2018-06-03T10:09:59.191Z,22.18
2018-06-03T10:14:50.203Z,22.28
2018-06-03T10:19:41.102Z,22.44
2018-06-03T10:24:32.784Z,22.68
2018-06-03T10:29:23.661Z,22.69
2018-06-03T10:34:14.552Z,22.80
2018-06-03T10:39:06.251Z,22.89
2018-06-03T10:43:57.155Z,22.92
2018-06-03T10:48:48.852Z,22.79
2018-06-03T10:53:40.487Z,22.72
2018-06-03T10:58:32.143Z,22.63
2018-06-03T11:03:23.767Z,22.60
2018-06-03T11:08:15.368Z,22.61
2018-06-03T11:13:06.345Z,22.62
2018-06-03T11:17:58.012Z,22.66
2018-06-03T11:22:50.716Z,22.93
2018-06-03T11:27:42.357Z,23.25
2018-06-03T11:32:34.004Z,23.40
2018-06-03T11:37:25.653Z,23.55
2018-06-03T11:42:16.553Z,23.58
2018-06-03T11:47:08.187Z,23.59
2018-06-03T11:51:59.826Z,23.56
2018-06-03T11:56:57.408Z,23.56
2018-06-03T12:01:48.355Z,23.55
2018-06-03T12:06:39.956Z,23.52
2018-06-03T12:11:31.583Z,23.54
2018-06-03T12:16:23.282Z,23.55
2018-06-03T12:21:15.219Z,23.58
2018-06-03T12:26:06.136Z,23.67
2018-06-03T12:30:57.754Z,23.73
2018-06-03T12:35:48.613Z,23.77
2018-06-03T12:41:56.668Z,23.32
2018-06-03T12:46:49.495Z,23.35
2018-06-03T12:51:42.427Z,23.45
2018-06-03T12:56:35.225Z,23.57
2018-06-03T13:01:30.907Z,23.67
2018-06-03T13:06:25.927Z,23.75
2018-06-03T13:11:18.939Z,23.78
2018-06-03T13:16:11.812Z,23.87
2018-06-03T13:21:04.739Z,23.96
2018-06-03T13:25:57.621Z,24.03
2018-06-03T13:30:50.626Z,24.07
2018-06-03T13:35:43.441Z,24.13
2018-06-03T13:40:36.321Z,24.17
2018-06-03T13:45:29.285Z,24.17
2018-06-03T13:50:22.194Z,24.17
2018-06-03T13:55:15.067Z,24.16
2018-06-03T14:00:07.926Z,24.15
2018-06-03T14:05:00.960Z,24.20
2018-06-03T14:09:53.910Z,24.29
2018-06-03T14:14:46.790Z,24.40
2018-06-03T14:19:39.663Z,24.44
2018-06-03T14:24:32.731Z,24.49
2018-06-03T14:29:25.662Z,24.52
2018-06-03T14:34:18.609Z,24.60
2018-06-03T14:39:11.618Z,24.74
2018-06-03T14:44:04.479Z,24.90
2018-06-03T14:48:57.327Z,25.03
2018-06-03T14:53:50.274Z,25.06
2018-06-03T14:58:43.259Z,25.15
2018-06-03T15:03:36.193Z,25.29
2018-06-03T15:08:29.079Z,25.41
2018-06-03T15:13:22.034Z,25.46
2018-06-03T15:18:14.890Z,25.47
2018-06-03T15:23:07.787Z,25.44
2018-06-03T15:28:00.705Z,25.45
2018-06-03T15:32:53.681Z,25.44
2018-06-03T15:37:46.596Z,25.49
2018-06-03T15:42:39.433Z,25.52
2018-06-03T15:47:32.348Z,25.54
2018-06-03T15:52:25.197Z,25.57
2018-06-03T15:57:18.106Z,25.57
2018-06-03T16:02:11.089Z,25.57
2018-06-03T16:07:04.178Z,25.58
2018-06-03T16:11:57.059Z,25.54
2018-06-03T16:16:49.917Z,25.53
2018-06-03T16:21:42.838Z,25.54
2018-06-03T16:26:35.708Z,25.54
2018-06-03T16:31:28.625Z,25.55
2018-06-03T16:36:21.487Z,25.54
2018-06-03T16:41:14.388Z,25.50
2018-06-03T16:46:07.411Z,25.47
2018-06-03T16:51:00.344Z,25.45
2018-06-03T16:55:53.190Z,25.44
2018-06-03T17:00:46.050Z,25.43
2018-06-03T17:05:39.033Z,25.43
2018-06-03T17:10:31.909Z,25.37
2018-06-03T17:15:24.869Z,25.35
2018-06-03T17:20:17.825Z,25.33
2018-06-03T17:25:10.521Z,25.30
2018-06-03T17:30:03.711Z,25.28
2018-06-03T17:34:56.639Z,25.27
2018-06-03T17:39:49.452Z,25.26
2018-06-03T17:44:42.334Z,25.22
2018-06-03T17:49:35.179Z,25.16
2018-06-03T17:54:28.011Z,25.08
2018-06-03T17:59:20.817Z,25.01
2018-06-03T18:04:13.739Z,24.97
2018-06-03T18:09:08.006Z,24.92
2018-06-03T18:14:00.930Z,24.87
2018-06-03T18:18:53.950Z,24.85
2018-06-03T18:23:47.027Z,24.81
2018-06-03T18:28:39.931Z,24.76
2018-06-03T18:33:33.000Z,24.72
2018-06-03T18:38:25.937Z,24.66
2018-06-03T18:43:18.834Z,24.61
2018-06-03T18:48:11.715Z,24.57
2018-06-03T18:53:04.915Z,24.51
2018-06-03T18:57:57.801Z,24.46
2018-06-03T19:02:52.254Z,24.44
2018-06-03T19:07:48.379Z,24.38
2018-06-03T19:12:43.262Z,24.30
2018-06-03T19:17:36.232Z,24.26
2018-06-03T19:22:29.189Z,24.24
2018-06-03T19:27:22.091Z,24.19
2018-06-03T19:32:14.952Z,24.14
2018-06-03T19:37:07.939Z,24.09
2018-06-03T19:42:00.877Z,23.99
2018-06-03T19:46:53.830Z,23.90
2018-06-03T19:51:46.799Z,23.83
2018-06-03T19:56:39.828Z,23.79
2018-06-03T20:01:32.804Z,23.72
2018-06-03T20:06:25.807Z,23.65
2018-06-03T20:11:18.751Z,23.61
2018-06-03T20:16:11.643Z,23.56
2018-06-03T20:21:04.525Z,23.53
2018-06-03T20:25:57.454Z,23.44
2018-06-03T20:30:50.370Z,23.32
2018-06-03T20:35:43.317Z,23.25
2018-06-03T20:40:36.157Z,23.19
2018-06-03T20:45:29.037Z,23.12
2018-06-03T20:50:21.909Z,23.06
2018-06-03T20:55:14.740Z,22.97
2018-06-03T21:00:07.737Z,22.88
2018-06-03T21:05:00.610Z,22.81
2018-06-03T21:09:53.499Z,22.74
2018-06-03T21:14:46.439Z,22.68
2018-06-03T21:19:39.314Z,22.63
2018-06-03T21:24:32.200Z,22.56
2018-06-03T21:29:25.145Z,22.51
2018-06-03T21:34:18.022Z,22.44
2018-06-03T21:44:03.327Z,22.33
2018-06-03T21:48:56.169Z,22.24
2018-06-03T21:53:49.136Z,22.17
2018-06-03T21:58:42.108Z,22.17
2018-06-03T22:03:35.002Z,22.13
2018-06-03T22:08:27.896Z,22.03
2018-06-03T22:13:20.823Z,21.96
2018-06-03T22:18:13.746Z,21.93
2018-06-03T22:23:06.688Z,21.92
2018-06-03T22:27:59.641Z,21.89
2018-06-03T22:32:52.540Z,21.85
2018-06-03T22:37:45.433Z,21.81
2018-06-03T22:42:38.278Z,21.73
2018-06-03T22:47:31.119Z,21.68
2018-06-03T22:52:24.015Z,21.62
2018-06-03T22:57:50.180Z,21.55
2018-06-03T23:02:47.714Z,21.51
2018-06-03T23:07:40.672Z,21.46
2018-06-03T23:12:33.550Z,21.40
2018-06-03T23:17:26.436Z,21.36
2018-06-03T23:22:19.443Z,21.33
2018-06-03T23:27:12.325Z,21.28
2018-06-03T23:32:05.344Z,21.20
2018-06-03T23:36:58.301Z,21.15
2018-06-03T23:41:51.145Z,21.06
2018-06-03T23:46:44.060Z,21.00
2018-06-03T23:51:36.950Z,20.98
2018-06-03T23:56:29.868Z,20.94
